createdAt,value
2019-02-26T00:00:32.362Z,8.39
2019-02-26T00:03:04.719Z,8.39
2019-02-26T00:05:35.285Z,8.41
2019-02-26T00:08:05.743Z,8.34
2019-02-26T00:10:38.835Z,8.36
2019-02-26T00:13:09.364Z,8.35
2019-02-26T00:15:40.535Z,8.35
2019-02-26T00:18:13.959Z,8.33
2019-02-26T00:20:45.155Z,8.34
2019-02-26T00:23:15.627Z,8.28
2019-02-26T00:25:46.042Z,8.32
2019-02-26T00:28:17.672Z,8.28
2019-02-26T00:30:48.616Z,8.26
2019-02-26T00:33:22.307Z,8.19
2019-02-26T00:35:51.262Z,8.13
2019-02-26T00:38:21.725Z,8.13
2019-02-26T00:40:52.083Z,8.11
2019-02-26T00:43:25.317Z,8.06
2019-02-26T00:45:56.008Z,7.98
2019-02-26T00:48:26.968Z,7.96
2019-02-26T00:50:59.446Z,7.96
2019-02-26T00:53:30.641Z,7.98
2019-02-26T00:56:03.257Z,8.02
2019-02-26T00:58:37.069Z,7.93
2019-02-26T01:01:08.239Z,8.00
2019-02-26T01:04:09.291Z,8.00
2019-02-26T01:06:46.901Z,7.98
2019-02-26T01:09:17.614Z,7.94
2019-02-26T01:11:49.747Z,7.90
2019-02-26T01:14:20.778Z,7.90
2019-02-26T01:16:52.420Z,7.93
2019-02-26T01:19:22.875Z,7.92
2019-02-26T01:21:53.373Z,7.90
2019-02-26T01:24:25.846Z,7.87
2019-02-26T01:26:56.037Z,7.86
2019-02-26T01:29:27.797Z,7.83
2019-02-26T01:31:58.478Z,7.86
2019-02-26T01:34:28.936Z,7.84
2019-02-26T01:37:00.923Z,7.83
2019-02-26T01:39:31.711Z,7.76
2019-02-26T01:42:02.132Z,7.81
2019-02-26T01:44:35.028Z,7.76
2019-02-26T01:47:05.695Z,7.73
2019-02-26T01:49:36.168Z,7.71
2019-02-26T01:52:08.264Z,7.70
2019-02-26T01:54:39.707Z,7.63
2019-02-26T01:57:10.132Z,7.63
2019-02-26T01:59:40.664Z,7.63
2019-02-26T02:02:14.689Z,7.62
2019-02-26T02:04:43.539Z,7.64
2019-02-26T02:07:14.036Z,7.65
2019-02-26T02:09:46.669Z,7.66
2019-02-26T02:12:16.604Z,7.66
2019-02-26T02:14:47.063Z,7.67
2019-02-26T02:17:18.606Z,7.65
2019-02-26T02:19:49.058Z,7.62
2019-02-26T02:22:21.245Z,7.58
2019-02-26T02:24:54.003Z,7.48
2019-02-26T02:27:26.833Z,7.51
2019-02-26T02:29:57.773Z,7.51
2019-02-26T02:32:29.826Z,7.56
2019-02-26T02:35:03.813Z,7.44
2019-02-26T02:37:32.780Z,7.44
2019-02-26T02:40:03.318Z,7.36
2019-02-26T02:42:35.018Z,7.29
2019-02-26T02:45:11.336Z,7.18
2019-02-26T02:47:40.794Z,7.23
2019-02-26T02:50:18.357Z,7.17
2019-02-26T02:52:50.886Z,7.16
2019-02-26T02:55:21.238Z,7.20
2019-02-26T02:57:53.102Z,7.14
2019-02-26T03:00:26.536Z,7.10
2019-02-26T03:02:58.299Z,7.18
2019-02-26T03:05:31.292Z,7.16
2019-02-26T03:08:00.530Z,7.22
2019-02-26T03:10:34.107Z,7.22
2019-02-26T03:13:03.341Z,7.17
2019-02-26T03:15:35.874Z,7.17
2019-02-26T03:18:08.578Z,7.18
2019-02-26T03:20:40.220Z,7.22
2019-02-26T03:23:15.087Z,7.14
2019-02-26T03:25:44.533Z,7.05
2019-02-26T03:28:14.495Z,7.06
2019-02-26T03:30:44.984Z,7.06
2019-02-26T03:33:15.406Z,7.05
2019-02-26T03:35:45.860Z,6.94
2019-02-26T03:38:18.104Z,6.90
2019-02-26T03:40:49.308Z,6.87
2019-02-26T03:43:20.682Z,6.87
2019-02-26T03:45:51.161Z,6.84
2019-02-26T03:48:21.664Z,6.72
2019-02-26T03:50:52.138Z,6.74
2019-02-26T03:53:25.504Z,6.81
2019-02-26T03:55:59.575Z,6.89
2019-02-26T03:58:26.937Z,6.95
2019-02-26T04:01:01.742Z,7.00
2019-02-26T04:03:32.140Z,7.07
2019-02-26T04:06:03.849Z,7.08
2019-02-26T04:08:34.859Z,7.10
2019-02-26T04:11:05.249Z,7.11
2019-02-26T04:13:35.682Z,7.11
2019-02-26T04:16:06.164Z,7.11
2019-02-26T04:18:36.868Z,7.14
2019-02-26T04:21:09.474Z,7.11
2019-02-26T04:23:41.564Z,7.10
2019-02-26T04:26:18.522Z,7.06
2019-02-26T04:28:53.446Z,7.06
2019-02-26T04:31:33.136Z,7.05
2019-02-26T04:34:08.492Z,7.05
2019-02-26T04:36:47.149Z,6.98
2019-02-26T04:39:44.317Z,6.94
2019-02-26T04:42:18.169Z,6.93
2019-02-26T04:45:09.659Z,6.90
2019-02-26T04:47:45.930Z,6.87
2019-02-26T04:50:15.679Z,6.81
2019-02-26T04:52:46.151Z,6.79
2019-02-26T04:55:16.575Z,6.79
2019-02-26T04:57:49.095Z,6.78
2019-02-26T05:00:19.176Z,6.78
2019-02-26T05:02:49.708Z,6.78
2019-02-26T05:05:22.453Z,6.79
2019-02-26T05:07:52.360Z,6.80
2019-02-26T05:10:24.343Z,6.84
2019-02-26T05:12:57.237Z,6.83
2019-02-26T05:15:30.032Z,6.82
2019-02-26T05:17:59.381Z,6.75
2019-02-26T05:20:31.444Z,6.75
2019-02-26T05:23:03.094Z,6.78
2019-02-26T05:25:35.130Z,6.76
2019-02-26T05:28:09.508Z,6.75
2019-02-26T05:30:40.443Z,6.76
2019-02-26T05:33:10.746Z,6.72
2019-02-26T05:35:43.792Z,6.69
2019-02-26T05:38:13.349Z,6.67
2019-02-26T05:40:45.203Z,6.68
2019-02-26T05:43:15.931Z,6.68
2019-02-26T05:45:48.443Z,6.67
2019-02-26T05:48:21.255Z,6.69
2019-02-26T05:50:52.506Z,6.68
2019-02-26T05:53:23.311Z,6.68
2019-02-26T05:55:55.974Z,6.70
2019-02-26T05:58:25.843Z,6.70
2019-02-26T06:00:56.347Z,6.69
2019-02-26T06:03:27.607Z,6.73
2019-02-26T06:06:00.333Z,6.75
2019-02-26T06:08:33.664Z,6.75
2019-02-26T06:11:02.486Z,6.76
2019-02-26T06:13:35.487Z,6.75
2019-02-26T06:16:07.449Z,6.74
2019-02-26T06:18:41.181Z,6.77
2019-02-26T06:21:09.542Z,6.78
2019-02-26T06:23:40.066Z,6.82
2019-02-26T06:26:14.091Z,6.87
2019-02-26T06:28:43.552Z,6.85
2019-02-26T06:31:17.404Z,6.82
2019-02-26T06:33:48.076Z,6.86
2019-02-26T06:36:21.040Z,6.90
2019-02-26T06:38:53.734Z,6.84
2019-02-26T06:41:22.956Z,6.88
2019-02-26T06:43:55.098Z,6.88
2019-02-26T06:46:27.121Z,6.91
2019-02-26T06:48:57.917Z,6.97
2019-02-26T06:51:30.628Z,7.01
2019-02-26T06:54:01.165Z,6.99
2019-02-26T06:56:34.464Z,7.02
2019-02-26T06:59:09.916Z,7.02
2019-02-26T07:01:42.024Z,7.04
2019-02-26T07:04:14.284Z,7.05
2019-02-26T07:06:44.724Z,7.11
2019-02-26T07:09:16.386Z,7.18
2019-02-26T07:11:47.403Z,7.23
2019-02-26T07:14:17.808Z,7.23
2019-02-26T07:16:48.312Z,7.25
2019-02-26T07:19:18.780Z,7.32
2019-02-26T07:21:51.302Z,7.27
2019-02-26T07:24:23.032Z,7.24
2019-02-26T07:26:53.499Z,7.23
2019-02-26T07:29:23.979Z,7.32
2019-02-26T07:31:56.558Z,7.35
2019-02-26T07:34:27.359Z,7.37
2019-02-26T07:36:57.857Z,7.33
2019-02-26T07:39:29.404Z,7.33
2019-02-26T07:41:59.898Z,7.43
2019-02-26T07:44:30.443Z,7.36
2019-02-26T07:47:03.685Z,7.36
2019-02-26T07:49:33.044Z,7.39
2019-02-26T07:52:05.962Z,7.37
2019-02-26T07:54:37.758Z,7.43
2019-02-26T07:57:07.878Z,7.52
2019-02-26T07:59:39.886Z,7.66
2019-02-26T08:02:11.371Z,7.62
2019-02-26T08:04:43.618Z,7.79
2019-02-26T08:07:14.215Z,7.83
2019-02-26T08:09:45.668Z,7.87
2019-02-26T08:12:16.161Z,7.92
2019-02-26T08:14:47.751Z,7.88
2019-02-26T08:17:18.683Z,8.10
2019-02-26T08:19:49.405Z,8.11
2019-02-26T08:22:19.971Z,7.94
2019-02-26T08:24:52.701Z,8.19
2019-02-26T08:27:22.651Z,8.13
2019-02-26T08:29:54.722Z,8.30
2019-02-26T08:32:26.214Z,8.46
2019-02-26T08:34:59.968Z,8.29
2019-02-26T08:37:30.789Z,8.40
2019-02-26T08:40:01.329Z,8.55
2019-02-26T08:42:31.818Z,8.45
2019-02-26T08:45:02.287Z,8.55
2019-02-26T08:47:33.386Z,8.50
2019-02-26T08:50:07.224Z,8.87
2019-02-26T08:52:37.806Z,8.80
2019-02-26T08:55:11.170Z,8.98
2019-02-26T09:00:25.573Z,9.53
2019-02-26T09:02:56.794Z,9.46
2019-02-26T09:05:29.240Z,9.23
2019-02-26T09:07:59.604Z,9.18
2019-02-26T09:10:30.039Z,9.40
2019-02-26T09:13:00.536Z,9.60
2019-02-26T09:15:33.217Z,9.64
2019-02-26T09:18:03.214Z,9.71
2019-02-26T09:20:33.655Z,9.74
2019-02-26T09:23:04.083Z,10.13
2019-02-26T09:25:34.531Z,9.83
2019-02-26T09:28:04.952Z,9.31
2019-02-26T09:30:36.469Z,9.35
2019-02-26T09:33:09.079Z,9.89
2019-02-26T09:35:39.843Z,10.09
2019-02-26T09:38:12.219Z,10.11
2019-02-26T09:40:42.516Z,10.14
2019-02-26T09:43:14.906Z,10.09
2019-02-26T09:45:45.861Z,9.86
2019-02-26T09:48:19.276Z,9.78
2019-02-26T09:50:49.397Z,9.69
2019-02-26T09:53:19.743Z,9.65
2019-02-26T09:55:50.207Z,9.72
2019-02-26T09:58:22.904Z,9.82
2019-02-26T10:00:54.193Z,9.87
2019-02-26T10:03:24.635Z,9.78
2019-02-26T10:05:56.060Z,9.50
2019-02-26T10:08:29.888Z,9.75
2019-02-26T10:11:00.221Z,9.74
2019-02-26T10:13:31.633Z,9.85
2019-02-26T10:16:04.497Z,9.81
2019-02-26T10:18:35.251Z,9.57
2019-02-26T10:21:08.523Z,10.02
2019-02-26T10:23:37.835Z,9.98
2019-02-26T10:26:10.569Z,10.04
2019-02-26T10:28:42.652Z,10.14
2019-02-26T10:31:12.619Z,10.13
2019-02-26T10:33:45.773Z,9.82
2019-02-26T10:36:16.641Z,9.97
2019-02-26T10:38:47.636Z,9.85
2019-02-26T10:41:18.185Z,9.77
2019-02-26T10:43:48.601Z,9.65
2019-02-26T10:46:19.073Z,9.76
2019-02-26T10:48:50.363Z,10.02
2019-02-26T10:51:26.035Z,9.90
2019-02-26T10:53:53.833Z,9.70
2019-02-26T10:56:28.000Z,9.68
2019-02-26T10:59:01.978Z,9.67
2019-02-26T11:01:30.787Z,9.80
2019-02-26T11:04:00.762Z,9.82
2019-02-26T11:06:33.719Z,9.69
2019-02-26T11:09:04.394Z,9.88
2019-02-26T11:11:38.059Z,9.91
2019-02-26T11:14:10.634Z,10.10
2019-02-26T11:16:40.739Z,10.10
2019-02-26T11:19:12.355Z,10.44
2019-02-26T11:21:42.985Z,10.66
2019-02-26T11:24:13.416Z,11.10
2019-02-26T11:26:44.053Z,11.13
2019-02-26T11:29:14.492Z,11.26
2019-02-26T11:31:47.308Z,11.32
2019-02-26T11:34:17.193Z,11.40
2019-02-26T11:36:47.722Z,11.62
2019-02-26T11:39:18.225Z,11.75
2019-02-26T11:41:53.055Z,12.20
2019-02-26T11:44:23.399Z,12.41
2019-02-26T11:46:54.262Z,12.35
2019-02-26T11:49:25.386Z,11.86
2019-02-26T11:51:55.952Z,11.82
2019-02-26T11:54:26.384Z,12.12
2019-02-26T11:56:57.253Z,12.18
2019-02-26T11:59:27.685Z,12.07
2019-02-26T12:01:59.139Z,11.88
2019-02-26T12:04:30.283Z,11.99
2019-02-26T12:07:03.936Z,12.09
2019-02-26T12:09:35.679Z,12.11
2019-02-26T12:12:08.545Z,12.00
2019-02-26T12:14:42.693Z,12.03
2019-02-26T12:17:10.295Z,12.10
2019-02-26T12:19:41.865Z,12.45
2019-02-26T12:22:12.335Z,12.46
2019-02-26T12:24:42.760Z,12.33
2019-02-26T12:27:17.981Z,12.60
2019-02-26T12:29:47.836Z,12.59
2019-02-26T12:32:19.504Z,12.65
2019-02-26T12:34:51.452Z,12.48
2019-02-26T12:37:22.016Z,12.61
2019-02-26T12:39:54.894Z,12.83
2019-02-26T12:42:25.610Z,13.17
2019-02-26T12:44:57.430Z,14.08
2019-02-26T12:47:28.104Z,15.97
2019-02-26T12:50:01.144Z,16.73
2019-02-26T12:52:30.866Z,18.71
2019-02-26T12:55:04.148Z,18.55
2019-02-26T12:57:33.548Z,17.43
2019-02-26T13:00:08.043Z,18.08
2019-02-26T13:02:39.987Z,17.39
2019-02-26T13:05:13.311Z,17.30
2019-02-26T13:07:43.968Z,16.69
2019-02-26T13:10:22.379Z,17.58
2019-02-26T13:12:54.989Z,19.22
2019-02-26T13:15:25.078Z,17.55
2019-02-26T13:17:55.547Z,17.37
2019-02-26T13:20:27.195Z,17.56
2019-02-26T13:23:16.228Z,17.62
2019-02-26T13:25:29.866Z,16.45
2019-02-26T13:28:00.333Z,15.97
2019-02-26T13:30:30.764Z,15.21
2019-02-26T13:33:05.169Z,15.10
2019-02-26T13:35:33.782Z,14.69
2019-02-26T13:38:05.349Z,14.58
2019-02-26T13:40:38.706Z,14.09
2019-02-26T13:43:08.386Z,14.54
2019-02-26T13:45:39.942Z,14.51
2019-02-26T13:48:10.733Z,14.37
2019-02-26T13:50:41.366Z,14.64
2019-02-26T13:53:11.917Z,14.48
2019-02-26T13:55:42.344Z,13.80
2019-02-26T13:58:13.265Z,13.92
2019-02-26T14:00:43.687Z,13.64
2019-02-26T14:03:14.232Z,13.70
2019-02-26T14:05:44.732Z,13.79
2019-02-26T14:08:15.268Z,13.73
2019-02-26T14:10:45.689Z,13.90
2019-02-26T14:13:16.246Z,13.83
2019-02-26T14:15:46.809Z,13.41
2019-02-26T14:18:17.272Z,13.63
2019-02-26T14:20:47.710Z,13.26
2019-02-26T14:23:18.176Z,13.20
2019-02-26T14:25:48.791Z,12.84
2019-02-26T14:28:19.249Z,12.69
2019-02-26T14:30:49.680Z,12.64
2019-02-26T14:33:20.150Z,12.55
2019-02-26T14:35:51.980Z,12.38
2019-02-26T14:38:22.527Z,12.30
2019-02-26T14:40:53.028Z,12.22
2019-02-26T14:43:23.466Z,12.27
2019-02-26T14:45:53.904Z,12.26
2019-02-26T14:48:24.483Z,12.14
2019-02-26T14:50:54.977Z,12.36
2019-02-26T14:53:25.391Z,12.40
2019-02-26T14:55:55.893Z,12.34
2019-02-26T14:58:26.749Z,11.88
2019-02-26T15:00:58.267Z,11.85
2019-02-26T15:03:29.346Z,11.74
2019-02-26T15:05:59.773Z,11.62
2019-02-26T15:08:30.322Z,11.32
2019-02-26T15:11:00.750Z,11.13
2019-02-26T15:13:31.226Z,10.96
2019-02-26T15:16:01.676Z,10.78
2019-02-26T15:18:32.417Z,10.59
2019-02-26T15:21:02.840Z,10.47
2019-02-26T15:23:33.265Z,10.42
2019-02-26T15:26:03.627Z,10.35
2019-02-26T15:28:35.185Z,10.27
2019-02-26T15:31:05.609Z,10.21
2019-02-26T15:33:36.083Z,10.10
2019-02-26T15:36:06.520Z,9.98
2019-02-26T15:38:37.153Z,9.90
2019-02-26T15:41:07.759Z,9.78
2019-02-26T15:43:38.231Z,9.71
2019-02-26T15:46:08.658Z,9.68
2019-02-26T15:48:39.123Z,9.58
2019-02-26T15:51:14.292Z,9.53
2019-02-26T15:53:41.644Z,9.43
2019-02-26T15:56:12.269Z,9.32
2019-02-26T15:58:42.670Z,9.16
2019-02-26T16:01:18.908Z,9.05
2019-02-26T16:03:51.260Z,8.96
2019-02-26T16:06:21.683Z,8.81
2019-02-26T16:08:52.162Z,8.66
2019-02-26T16:11:22.647Z,8.61
2019-02-26T16:13:53.113Z,8.57
2019-02-26T16:16:23.607Z,8.43
2019-02-26T16:18:54.609Z,8.38
2019-02-26T16:21:25.653Z,8.29
2019-02-26T16:23:56.428Z,8.25
2019-02-26T16:26:26.851Z,8.18
2019-02-26T16:29:00.820Z,8.15
2019-02-26T16:31:30.026Z,8.03
2019-02-26T16:34:01.017Z,8.00
2019-02-26T16:36:32.249Z,7.96
2019-02-26T16:39:03.207Z,7.80
2019-02-26T16:41:38.052Z,7.74
2019-02-26T16:44:07.380Z,7.71
2019-02-26T16:46:42.712Z,7.59
2019-02-26T16:49:13.490Z,7.68
2019-02-26T16:51:44.234Z,7.52
2019-02-26T16:54:15.088Z,7.48
2019-02-26T16:56:45.587Z,7.47
2019-02-26T16:59:16.129Z,7.41
2019-02-26T17:01:46.626Z,7.33
2019-02-26T17:04:17.231Z,7.27
2019-02-26T17:06:47.730Z,7.21
2019-02-26T17:09:19.018Z,7.16
2019-02-26T17:11:50.481Z,7.15
2019-02-26T17:14:21.784Z,7.00
2019-02-26T17:16:52.300Z,6.93
2019-02-26T17:19:22.832Z,6.95
2019-02-26T17:21:53.698Z,7.01
2019-02-26T17:24:24.231Z,6.90
2019-02-26T17:26:54.668Z,6.81
2019-02-26T17:29:25.136Z,6.76
2019-02-26T17:31:55.630Z,6.79
2019-02-26T17:34:27.092Z,6.72
2019-02-26T17:36:57.650Z,6.79
2019-02-26T17:39:28.734Z,6.63
2019-02-26T17:41:59.260Z,6.54
2019-02-26T17:44:29.789Z,6.52
2019-02-26T17:47:00.145Z,6.48
2019-02-26T17:49:30.611Z,6.42
2019-02-26T17:52:01.279Z,6.30
2019-02-26T17:54:31.831Z,6.17
2019-02-26T17:57:02.255Z,6.15
2019-02-26T17:59:32.897Z,6.06
2019-02-26T18:02:03.320Z,6.07
2019-02-26T18:04:33.853Z,6.04
2019-02-26T18:07:04.207Z,5.90
2019-02-26T18:09:35.103Z,5.86
2019-02-26T18:12:05.626Z,5.81
2019-02-26T18:14:38.537Z,5.85
2019-02-26T18:17:08.219Z,5.72
2019-02-26T18:19:38.684Z,5.60
2019-02-26T18:22:09.101Z,5.47
2019-02-26T18:24:39.635Z,5.42
2019-02-26T18:27:10.085Z,5.38
2019-02-26T18:29:40.543Z,5.32
2019-02-26T18:32:11.248Z,5.29
2019-02-26T18:34:42.159Z,5.22
2019-02-26T18:37:12.775Z,5.25
2019-02-26T18:39:50.005Z,5.18
2019-02-26T18:42:30.073Z,5.21
2019-02-26T18:45:00.619Z,5.22
2019-02-26T18:47:32.639Z,5.31
2019-02-26T18:50:03.106Z,5.28
2019-02-26T18:52:33.597Z,5.30
2019-02-26T18:55:05.818Z,5.31
2019-02-26T18:57:36.533Z,5.33
2019-02-26T19:00:10.233Z,5.27
2019-02-26T19:02:42.530Z,5.20
2019-02-26T19:05:13.611Z,5.15
2019-02-26T19:07:44.172Z,5.26
2019-02-26T19:10:19.421Z,5.14
2019-02-26T19:12:48.612Z,5.13
2019-02-26T19:15:21.060Z,5.08
2019-02-26T19:17:53.604Z,5.06
2019-02-26T19:20:30.215Z,5.08
2019-02-26T19:23:02.088Z,5.06
2019-02-26T19:25:32.850Z,4.95
2019-02-26T19:28:03.364Z,4.86
2019-02-26T19:30:36.697Z,4.81
2019-02-26T19:33:06.357Z,4.77
2019-02-26T19:35:40.315Z,4.70
2019-02-26T19:38:08.996Z,4.68
2019-02-26T19:40:43.514Z,4.66
2019-02-26T19:43:13.926Z,4.67
2019-02-26T19:45:44.971Z,4.65
2019-02-26T19:48:15.858Z,4.65
2019-02-26T19:50:48.649Z,4.77
2019-02-26T19:53:18.384Z,4.86
2019-02-26T19:55:50.078Z,4.80
2019-02-26T19:58:20.580Z,4.92
2019-02-26T20:00:52.998Z,5.01
2019-02-26T20:03:23.327Z,4.93
2019-02-26T20:05:53.728Z,4.99
2019-02-26T20:08:24.303Z,5.02
2019-02-26T20:10:54.830Z,5.00
2019-02-26T20:13:25.418Z,4.99
2019-02-26T20:15:56.020Z,4.90
2019-02-26T20:18:26.738Z,4.81
2019-02-26T20:20:58.737Z,4.80
2019-02-26T20:23:29.373Z,4.84
2019-02-26T20:25:59.920Z,4.77
2019-02-26T20:28:30.354Z,4.64
2019-02-26T20:31:00.837Z,4.63
2019-02-26T20:33:31.347Z,4.66
2019-02-26T20:36:02.180Z,4.61
2019-02-26T20:38:35.208Z,4.66
2019-02-26T20:41:04.968Z,4.82
2019-02-26T20:43:36.927Z,4.78
2019-02-26T20:46:07.940Z,4.78
2019-02-26T20:48:38.456Z,4.73
2019-02-26T20:51:08.920Z,4.66
2019-02-26T20:53:39.762Z,4.62
2019-02-26T20:56:10.232Z,4.58
2019-02-26T20:58:44.657Z,4.59
2019-02-26T21:01:12.974Z,4.53
2019-02-26T21:03:43.468Z,4.57
2019-02-26T21:06:15.600Z,4.59
2019-02-26T21:08:46.287Z,4.57
2019-02-26T21:11:16.713Z,4.42
2019-02-26T21:13:47.241Z,4.40
2019-02-26T21:16:18.639Z,4.33
2019-02-26T21:18:50.082Z,4.29
2019-02-26T21:21:38.896Z,4.27
2019-02-26T21:24:11.845Z,4.33
2019-02-26T21:26:43.764Z,4.27
2019-02-26T21:29:15.722Z,4.29
2019-02-26T21:31:49.712Z,4.25
2019-02-26T21:34:21.215Z,4.16
2019-02-26T21:36:53.116Z,4.14
2019-02-26T21:39:24.995Z,4.04
2019-02-26T21:41:56.903Z,3.94
2019-02-26T21:44:28.766Z,3.88
2019-02-26T21:47:00.741Z,3.80
2019-02-26T21:49:32.680Z,3.71
2019-02-26T21:52:08.697Z,3.69
2019-02-26T21:54:40.245Z,3.67
2019-02-26T21:57:12.280Z,3.69
2019-02-26T21:59:50.032Z,3.57
2019-02-26T22:02:18.870Z,3.53
2019-02-26T22:04:49.953Z,3.46
2019-02-26T22:07:20.487Z,3.30
2019-02-26T22:09:50.903Z,3.24
2019-02-26T22:12:21.877Z,3.09
2019-02-26T22:14:54.570Z,3.09
2019-02-26T22:17:25.823Z,2.96
2019-02-26T22:19:56.419Z,2.84
2019-02-26T22:22:27.138Z,2.80
2019-02-26T22:24:57.948Z,2.73
2019-02-26T22:27:28.456Z,2.63
2019-02-26T22:29:58.913Z,2.60
2019-02-26T22:32:29.629Z,2.54
2019-02-26T22:35:00.214Z,2.53
2019-02-26T22:37:30.694Z,2.41
2019-02-26T22:40:01.236Z,2.27
2019-02-26T22:42:33.448Z,2.32
2019-02-26T22:45:04.816Z,2.23
2019-02-26T22:47:40.101Z,2.28
2019-02-26T22:50:11.295Z,2.29
2019-02-26T22:52:42.026Z,2.34
2019-02-26T22:55:17.299Z,2.24
2019-02-26T22:57:48.167Z,2.17
2019-02-26T23:00:49.663Z,2.11
2019-02-26T23:03:21.753Z,2.22
2019-02-26T23:05:52.272Z,2.22
2019-02-26T23:08:22.964Z,2.20
2019-02-26T23:10:56.843Z,2.00
2019-02-26T23:13:25.814Z,1.95
2019-02-26T23:15:56.387Z,1.91
2019-02-26T23:18:28.443Z,1.82
2019-02-26T23:20:59.145Z,1.97
2019-02-26T23:23:29.673Z,2.00
2019-02-26T23:26:01.163Z,1.91
2019-02-26T23:28:31.833Z,1.84
2019-02-26T23:31:02.418Z,1.85
2019-02-26T23:33:32.876Z,1.85
2019-02-26T23:36:03.512Z,1.72
2019-02-26T23:38:34.055Z,1.83
2019-02-26T23:41:04.632Z,1.78
2019-02-26T23:43:35.152Z,1.71
2019-02-26T23:46:05.646Z,1.62
2019-02-26T23:48:36.173Z,1.61
2019-02-26T23:51:06.681Z,1.53
2019-02-26T23:53:38.320Z,1.45
2019-02-26T23:56:08.829Z,1.45
2019-02-26T23:58:39.292Z,1.36
